Página principal
METAR-TAF:

METAR-TAF

Aeroportos :

Aeroporto de Vigo

Vigo, Espanha

latitude: 42-13N, longitude: 008-38W, altura: 264 m

Observação actual do tempo

O boletim foi feito há 22 minutos, às 14:00 UTC
Vento calmo
Temperatura 21°C
Humidade 69%
Pressão 1016 hPa
Visibilidade 10 km ou mais
Poucas nuvensa uma altura de 4200 ft

METAR: LEVX 151400Z 00000KT 9999 FEW042 21/15 Q1016 NOSIG

Hora: 15:22 (14:22 UTC)

Previsão

O boletim foi feito há 3 horas e 22 minutos, às 11:00 UTC
Previsão válida de 15 às 12 UTC a 16 às 12 UTC
Vento 4 kt com direcção variável
Visibilidade 10 km ou mais
Nuvens dispersasa uma altura de 5000 ft

TAF: LEVX 151100Z 1512/1612 VRB04KT 9999 SCT050 TX18/1515Z TN11/1606Z

Observações e previsões do tempo de mais de 4000 aeroportos (mensagens METAR e TAF).

As estações disponíveis são os pontos amarelos e vermelhos sobre o mapa.

Mova o rato sobre o mapa para ver o nome da estação.

Depois clique no ponto para visualizar as observações e previsões meteorológicas.

Para alterar o mapa : clique nos botões verdes com uma cruz preta para aumentar o zoom; no botão verde com uma pitada de zoom; ou nas setas verdes para mapas adjacentes.


METAR-TAF: